Time;durP1;ratioP1;P1;durP2;ratioP2;P2;SDS_P1;SDS_P2;PMS_P1;PMS_P2;Temp;Humidity;BMP_temperature;BMP_pressure;BME280_temperature;BME280_humidity;BME280_pressure;Samples;Min_cycle;Max_cycle;Signal;HPM_P1;HPM_P2
2023/08/27 07:21:00;;;;;;;5.30;3.97;;;;;;;16.26;100.00;96011.88;2084642;28;20579;-65
2023/08/27 07:23:19;;;;;;;6.00;3.40;;;;;;;16.49;100.00;96018.00;2093243;27;20558;-63
2023/08/27 08:23:11;;;;;;;5.70;3.15;;;;;;;16.57;100.00;96122.81;2083997;28;20550;-62
2023/08/27 08:25:27;;;;;;;7.78;2.47;;;;;;;16.63;100.00;96110.00;2099946;27;20834;-63
2023/08/27 08:27:42;;;;;;;6.63;2.95;;;;;;;16.85;97.27;96118.88;2083566;27;20578;-62
2023/08/27 08:29:54;;;;;;;5.45;3.42;;;;;;;16.93;98.93;96131.50;2101470;27;20572;-63
2023/08/27 08:32:11;;;;;;;6.15;2.90;;;;;;;16.92;98.82;96130.63;2082034;28;20566;-63
2023/08/27 08:34:29;;;;;;;6.05;2.80;;;;;;;16.89;98.41;96119.47;2099810;27;20559;-63
2023/08/27 08:36:50;;;;;;;8.43;3.22;;;;;;;16.85;97.49;96115.38;2083870;28;20560;-63
2023/08/27 08:39:24;;;;;;;6.03;2.70;;;;;;;17.09;95.36;96094.19;2103340;27;20552;-63
2023/08/27 08:40:26;;;;;;;5.57;2.60;;;;;;;17.11;95.41;96094.91;2096781;28;20187;-63
2023/08/27 08:42:55;;;;;;;6.45;3.17;;;;;;;17.10;94.15;96094.09;2083089;27;20580;-63
2023/08/27 08:45:40;;;;;;;8.20;2.85;;;;;;;17.54;94.32;96109.09;2102133;27;21127;-63
2023/08/27 09:16:23;;;;;;;8.18;2.70;;;;;;;17.59;92.56;96091.06;2106425;27;20900;-63
2023/08/27 09:17:25;;;;;;;8.77;2.13;;;;;;;17.64;92.73;96080.97;2101252;27;20230;-63
2023/08/27 09:18:28;;;;;;;10.75;3.17;;;;;;;17.59;92.22;96081.34;2095581;28;20510;-63
2023/08/27 09:19:30;;;;;;;6.80;2.70;;;;;;;17.71;92.16;96076.00;2095491;28;20226;-64
2023/08/27 09:20:31;;;;;;;6.47;2.65;;;;;;;17.96;91.91;96082.78;2096309;28;20729;-63
2023/08/27 09:21:34;;;;;;;6.68;2.80;;;;;;;17.98;90.57;96075.56;2096190;28;20758;-63
2023/08/27 09:22:35;;;;;;;7.15;3.10;;;;;;;17.73;91.28;96064.38;2088278;28;20224;-63
2023/08/27 09:23:38;;;;;;;6.50;2.80;;;;;;;18.01;92.00;96067.38;2087800;28;20296;-63
2023/08/27 09:24:40;;;;;;;5.10;2.80;;;;;;;18.43;90.87;96069.97;2088597;28;20197;-64
2023/08/27 09:25:42;;;;;;;8.60;2.78;;;;;;;18.83;89.01;96070.16;2089251;28;20203;-63
2023/08/27 09:26:44;;;;;;;8.25;3.05;;;;;;;19.25;88.78;96077.97;2087183;28;20740;-63
2023/08/27 09:27:46;;;;;;;5.53;2.22;;;;;;;19.56;88.12;96075.22;2086907;28;20216;-64
2023/08/27 09:28:48;;;;;;;6.38;2.95;;;;;;;19.91;86.27;96076.53;2087203;28;20279;-64
2023/08/27 09:29:51;;;;;;;4.75;2.50;;;;;;;20.11;84.52;96072.03;2089053;28;20207;-64
2023/08/27 09:30:53;;;;;;;7.45;2.85;;;;;;;20.06;83.90;96076.91;2086951;28;20630;-63
2023/08/27 09:31:56;;;;;;;5.22;2.38;;;;;;;19.60;85.87;96078.44;2087516;28;20245;-64
2023/08/27 09:32:58;;;;;;;10.73;2.60;;;;;;;19.37;85.59;96078.69;2087181;28;20623;-64
2023/08/27 09:33:59;;;;;;;6.97;2.67;;;;;;;19.85;85.29;96075.25;2086561;28;20211;-63
2023/08/27 09:35:03;;;;;;;4.22;2.20;;;;;;;19.80;81.59;96080.13;2086828;28;20197;-63
2023/08/27 09:36:05;;;;;;;11.27;2.90;;;;;;;19.83;81.29;96084.31;2086934;28;20242;-63
2023/08/27 09:37:06;;;;;;;5.65;2.50;;;;;;;19.72;82.03;96083.47;2086667;28;20710;-64
2023/08/27 09:38:13;;;;;;;7.75;2.22;;;;;;;19.64;82.87;96085.13;2087086;28;20192;-63
2023/08/27 09:39:15;;;;;;;15.13;2.55;;;;;;;19.53;84.22;96088.75;2087441;28;20283;-63
2023/08/27 09:40:17;;;;;;;5.18;2.50;;;;;;;19.38;83.45;96085.66;2088701;28;20887;-63
2023/08/27 09:41:20;;;;;;;5.20;2.50;;;;;;;19.48;83.85;96094.44;2087966;28;20197;-63
2023/08/27 09:42:22;;;;;;;7.25;2.53;;;;;;;19.64;84.25;96079.81;2086563;28;20228;-63
2023/08/27 09:43:26;;;;;;;4.38;2.42;;;;;;;19.59;83.58;96077.59;2087247;28;20508;-63
2023/08/27 09:44:28;;;;;;;10.63;2.70;;;;;;;19.64;82.43;96080.69;2086268;28;20200;-63
2023/08/27 09:45:30;;;;;;;4.32;2.17;;;;;;;19.68;82.30;96089.16;2085646;28;20188;-63
2023/08/27 09:46:31;;;;;;;5.68;2.05;;;;;;;19.48;82.61;96081.22;2087672;28;20272;-63
2023/08/27 09:47:38;;;;;;;6.45;2.67;;;;;;;19.68;81.99;96084.72;2087277;28;20374;-63
2023/08/27 09:48:40;;;;;;;3.67;2.22;;;;;;;19.49;82.44;96085.53;2087318;28;20243;-63
2023/08/27 09:49:42;;;;;;;3.47;1.90;;;;;;;19.89;82.64;96086.41;2086895;28;20246;-63
2023/08/27 09:50:44;;;;;;;4.30;1.92;;;;;;;20.20;82.23;96081.78;2087655;28;20200;-63
2023/08/27 09:51:45;;;;;;;5.75;2.13;;;;;;;20.02;81.51;96089.63;2087505;28;20285;-64
2023/08/27 09:52:47;;;;;;;5.45;2.42;;;;;;;19.34;82.97;96081.63;2087804;28;20228;-64
2023/08/27 09:53:48;;;;;;;8.18;2.70;;;;;;;19.78;83.53;96081.22;2088390;28;20624;-64
2023/08/27 09:54:52;;;;;;;8.50;2.75;;;;;;;20.20;82.59;96081.78;2087908;28;20195;-63
2023/08/27 09:55:53;;;;;;;4.25;2.28;;;;;;;20.12;82.35;96086.94;2088220;28;20539;-63
2023/08/27 09:56:59;;;;;;;7.30;2.60;;;;;;;20.25;82.02;96096.44;2087994;28;20242;-63
2023/08/27 09:58:03;;;;;;;9.52;2.40;;;;;;;20.32;80.15;96090.41;2088063;28;20224;-64
2023/08/27 09:59:05;;;;;;;4.18;2.50;;;;;;;20.32;79.22;96084.28;2086359;28;20284;-64
2023/08/27 10:00:08;;;;;;;6.43;2.40;;;;;;;20.31;78.25;96085.25;2086935;28;20228;-64
2023/08/27 10:01:10;;;;;;;7.90;2.25;;;;;;;20.27;78.87;96082.03;2087282;28;20197;-63
2023/08/27 10:02:15;;;;;;;8.75;2.17;;;;;;;20.52;77.03;96079.78;2086336;28;20220;-63
2023/08/27 10:03:21;;;;;;;5.18;2.30;;;;;;;20.17;75.34;96065.34;2086992;28;20746;-63
2023/08/27 10:04:23;;;;;;;9.05;2.83;;;;;;;19.64;77.81;96071.88;2086720;28;20189;-63
2023/08/27 10:05:30;;;;;;;4.13;1.95;;;;;;;19.68;78.76;96082.06;2087057;28;20203;-64
2023/08/27 10:06:35;;;;;;;4.82;2.60;;;;;;;19.56;80.68;96076.06;2086495;28;20279;-63
2023/08/27 10:07:37;;;;;;;6.00;2.45;;;;;;;19.77;79.99;96071.59;2087203;28;20615;-64
2023/08/27 10:08:46;;;;;;;10.52;2.20;;;;;;;19.74;79.89;96068.28;2088167;28;20196;-63
2023/08/27 10:09:53;;;;;;;12.60;2.55;;;;;;;19.62;81.08;96066.72;2088168;28;20205;-64
2023/08/27 10:11:10;;;;;;;5.32;2.55;;;;;;;19.96;78.37;96066.34;2086958;28;20230;-64
2023/08/27 10:12:12;;;;;;;4.65;2.45;;;;;;;19.80;78.69;96074.81;2085944;28;20231;-64
2023/08/27 10:13:15;;;;;;;7.68;2.78;;;;;;;19.94;80.00;96067.47;2086135;28;20300;-64
2023/08/27 10:14:17;;;;;;;5.95;2.67;;;;;;;20.13;78.93;96083.31;2086875;28;20482;-64
2023/08/27 10:15:19;;;;;;;7.10;2.40;;;;;;;20.19;77.82;96087.25;2086689;28;20193;-64
2023/08/27 10:16:21;;;;;;;9.82;2.88;;;;;;;20.05;79.49;96089.34;2085876;28;20714;-64
2023/08/27 10:17:24;;;;;;;10.77;2.70;;;;;;;20.02;78.82;96088.78;2085336;28;20251;-63
2023/08/27 10:18:26;;;;;;;5.05;2.00;;;;;;;19.89;78.62;96083.78;2089554;28;20699;-63
2023/08/27 10:19:29;;;;;;;4.63;2.22;;;;;;;20.33;76.69;96081.47;2091797;28;20196;-64
2023/08/27 10:20:31;;;;;;;5.18;2.92;;;;;;;20.45;76.54;96066.22;2090330;28;20713;-64
2023/08/27 10:21:32;;;;;;;9.68;2.10;;;;;;;20.60;75.05;96076.41;2086846;28;20232;-64
2023/08/27 10:22:36;;;;;;;4.80;2.10;;;;;;;20.66;74.83;96065.22;2085696;28;20714;-64
2023/08/27 10:23:39;;;;;;;8.68;2.47;;;;;;;20.38;75.84;96067.81;2086618;28;20196;-63
2023/08/27 10:24:41;;;;;;;6.10;2.33;;;;;;;20.63;77.11;96069.00;2086867;28;20196;-64
2023/08/27 10:25:43;;;;;;;11.73;3.00;;;;;;;20.93;77.28;96059.09;2087022;28;20200;-64
2023/08/27 10:26:46;;;;;;;7.47;2.67;;;;;;;21.05;76.16;96065.03;2086874;28;20203;-64
2023/08/27 10:27:50;;;;;;;7.20;2.35;;;;;;;21.17;76.09;96061.19;2081550;28;20232;-63
2023/08/27 10:28:53;;;;;;;6.40;2.55;;;;;;;21.76;73.80;96057.34;2081296;28;20209;-64
2023/08/27 10:29:56;;;;;;;4.72;2.10;;;;;;;21.65;70.17;96063.72;2082006;28;20643;-64
2023/08/27 10:30:57;;;;;;;7.70;2.50;;;;;;;21.55;71.20;96066.44;2082926;28;20247;-64
2023/08/27 10:31:59;;;;;;;7.63;2.83;;;;;;;21.73;71.20;96063.78;2080977;28;20257;-64
2023/08/27 10:33:01;;;;;;;8.15;2.45;;;;;;;21.87;71.63;96073.03;2082813;28;20249;-64
2023/08/27 10:34:03;;;;;;;8.32;2.45;;;;;;;22.09;72.66;96070.88;2083291;28;20284;-64
2023/08/27 10:35:05;;;;;;;4.15;2.17;;;;;;;21.94;70.59;96068.78;2081847;28;20336;-64
2023/08/27 10:36:20;;;;;;;4.13;1.65;;;;;;;22.18;69.63;96064.63;2083147;28;20816;-64
2023/08/27 10:37:27;;;;;;;4.30;1.85;;;;;;;22.13;68.47;96067.78;2080417;28;20279;-64
2023/08/27 10:38:33;;;;;;;6.20;2.08;;;;;;;22.45;68.81;96068.19;2080971;28;20197;-64
2023/08/27 10:39:36;;;;;;;8.93;2.70;;;;;;;22.68;69.05;96063.16;2081170;28;20212;-64
2023/08/27 10:40:38;;;;;;;9.57;2.03;;;;;;;22.41;69.83;96061.50;2082437;28;20859;-64
2023/08/27 10:41:40;;;;;;;6.50;2.50;;;;;;;22.30;71.42;96060.75;2081676;28;20255;-64
2023/08/27 10:42:41;;;;;;;4.43;2.00;;;;;;;21.85;71.36;96059.06;2080283;28;20229;-63
2023/08/27 10:43:43;;;;;;;5.50;2.38;;;;;;;22.14;68.79;96065.94;2083103;28;20197;-64
2023/08/27 10:45:17;;;;;;;7.95;1.90;;;;;;;22.11;69.75;96068.94;2080950;28;20539;-64
2023/08/27 10:46:20;;;;;;;9.07;2.70;;;;;;;22.18;71.74;96067.28;2082715;28;20197;-64
2023/08/27 10:47:22;;;;;;;5.80;2.00;;;;;;;22.23;71.12;96069.50;2080223;28;20292;-64
2023/08/27 10:48:25;;;;;;;3.30;1.92;;;;;;;22.21;71.60;96064.34;2079693;28;20270;-64
2023/08/27 10:49:36;;;;;;;3.33;1.70;;;;;;;21.93;70.00;96068.94;2080595;28;20247;-64
2023/08/27 10:50:47;;;;;;;4.32;1.80;;;;;;;21.79;71.53;96073.00;2081334;28;20243;-64
2023/08/27 10:51:48;;;;;;;5.40;1.70;;;;;;;21.29;70.53;96066.31;2079895;28;20659;-64
2023/08/27 10:52:51;;;;;;;6.32;2.30;;;;;;;21.15;71.18;96063.19;2080446;28;20319;-64
2023/08/27 10:53:56;;;;;;;7.05;2.20;;;;;;;20.92;70.71;96061.91;2080402;28;20354;-64
2023/08/27 10:55:01;;;;;;;6.05;2.22;;;;;;;20.67;70.48;96062.41;2081141;28;20193;-64
2023/08/27 10:56:02;;;;;;;3.90;2.17;;;;;;;20.37;70.71;96061.66;2080819;28;20193;-64
2023/08/27 10:57:22;;;;;;;5.07;2.10;;;;;;;20.25;70.92;96067.25;2083293;28;20221;-63
2023/08/27 10:58:26;;;;;;;5.80;2.08;;;;;;;19.96;72.16;96065.50;2090462;28;20192;-64
2023/08/27 10:59:28;;;;;;;4.18;1.75;;;;;;;20.19;72.00;96071.34;2090173;28;20542;-64
2023/08/27 11:01:18;;;;;;;8.48;2.10;;;;;;;20.09;70.62;96058.09;2088834;28;20196;-64
2023/08/27 11:02:20;;;;;;;4.65;2.15;;;;;;;20.25;72.13;96059.31;2087890;28;20223;-64
2023/08/27 11:03:22;;;;;;;4.95;1.88;;;;;;;20.27;74.63;96065.31;2091125;28;20188;-64
2023/08/27 11:04:35;;;;;;;6.30;1.83;;;;;;;20.31;71.01;96064.03;2090966;28;20240;-64
2023/08/27 11:05:36;;;;;;;5.90;1.70;;;;;;;20.28;69.33;96064.31;2090105;28;20200;-64
2023/08/27 11:06:46;;;;;;;7.93;2.10;;;;;;;20.52;69.24;96072.63;2088632;28;20648;-63
2023/08/27 11:07:50;;;;;;;4.97;1.88;;;;;;;20.56;69.95;96070.53;2088446;28;20637;-64
2023/08/27 11:08:52;;;;;;;4.20;1.58;;;;;;;20.79;72.12;96079.00;2088937;28;20633;-64
2023/08/27 11:09:56;;;;;;;6.60;1.88;;;;;;;20.80;73.11;96082.50;2089512;28;20211;-64
2023/08/27 11:10:57;;;;;;;5.03;2.00;;;;;;;20.74;71.38;96072.47;2088229;28;20759;-64
2023/08/27 11:12:03;;;;;;;9.90;1.80;;;;;;;20.67;70.41;96072.16;2088659;28;20298;-64
2023/08/27 11:13:05;;;;;;;3.85;1.48;;;;;;;20.81;69.43;96073.53;2089086;28;20231;-64
2023/08/27 11:14:11;;;;;;;5.43;1.77;;;;;;;20.88;70.61;96072.78;2088436;28;20192;-64
2023/08/27 11:15:28;;;;;;;6.00;1.60;;;;;;;20.96;70.76;96071.25;2089031;28;20849;-64
2023/08/27 11:16:30;;;;;;;4.70;1.90;;;;;;;21.11;70.79;96066.28;2089640;28;20194;-64
2023/08/27 11:17:32;;;;;;;5.78;2.00;;;;;;;21.03;69.08;96064.38;2089513;28;20223;-64
2023/08/27 11:18:47;;;;;;;9.48;1.90;;;;;;;20.87;70.04;96079.13;2089444;28;20212;-64
2023/08/27 11:19:49;;;;;;;6.43;2.25;;;;;;;21.12;70.65;96075.91;2088972;28;20204;-64
2023/08/27 11:20:51;;;;;;;9.43;1.65;;;;;;;21.53;70.24;96065.72;2089533;28;20639;-64
2023/08/27 11:22:04;;;;;;;4.43;2.13;;;;;;;22.11;69.41;96076.91;2088856;28;20258;-64
2023/08/27 11:23:08;;;;;;;5.68;1.70;;;;;;;22.17;67.71;96069.13;2088827;28;20287;-64
2023/08/27 11:24:18;;;;;;;6.05;2.40;;;;;;;21.96;68.63;96068.63;2088969;28;20279;-64
2023/08/27 11:25:19;;;;;;;10.38;3.10;;;;;;;22.22;69.03;96070.47;2088803;28;20196;-65
2023/08/27 11:26:21;;;;;;;5.88;2.40;;;;;;;22.03;67.79;96067.03;2091560;28;20706;-65
2023/08/27 11:27:25;;;;;;;5.60;1.90;;;;;;;22.07;67.09;96063.06;2089692;28;20224;-64
2023/08/27 11:28:27;;;;;;;8.60;2.17;;;;;;;21.99;68.36;96060.34;2092060;28;20813;-64
2023/08/27 11:29:29;;;;;;;4.90;1.98;;;;;;;22.13;67.97;96062.47;2091013;28;20188;-65
2023/08/27 11:30:31;;;;;;;3.83;1.77;;;;;;;22.29;66.10;96059.06;2089860;28;20242;-62
2023/08/27 11:31:32;;;;;;;7.25;1.80;;;;;;;22.13;64.81;96056.28;2090549;28;20197;-62
2023/08/27 11:32:34;;;;;;;7.55;2.00;;;;;;;21.85;65.84;96059.06;2088033;28;20763;-63
2023/08/27 11:33:35;;;;;;;3.22;1.52;;;;;;;21.78;66.65;96056.19;2089002;28;20189;-63
2023/08/27 11:34:38;;;;;;;6.03;2.40;;;;;;;21.69;65.76;96060.59;2089280;28;20227;-62
2023/08/27 11:35:40;;;;;;;4.85;2.05;;;;;;;21.63;66.19;96052.41;2089331;28;20245;-63
2023/08/27 11:36:44;;;;;;;6.05;1.92;;;;;;;21.74;66.07;96057.50;2088993;28;20647;-62
2023/08/27 11:37:45;;;;;;;4.68;2.10;;;;;;;21.61;65.65;96057.88;2087558;28;20639;-62
2023/08/27 11:38:47;;;;;;;3.97;2.17;;;;;;;21.78;65.50;96058.84;2092929;28;20200;-62
2023/08/27 11:39:48;;;;;;;5.05;2.10;;;;;;;21.91;65.74;96061.09;2091017;28;20196;-62
2023/08/27 11:40:50;;;;;;;5.05;1.70;;;;;;;22.25;65.82;96065.69;2109347;28;20727;-63
2023/08/27 11:41:52;;;;;;;8.57;1.92;;;;;;;22.07;66.40;96063.06;2107440;28;20237;-62
2023/08/27 11:42:56;;;;;;;5.68;1.85;;;;;;;22.23;66.61;96064.19;2091732;28;20327;-62
2023/08/27 11:43:58;;;;;;;6.22;1.95;;;;;;;22.12;68.46;96066.09;2090851;28;20200;-63
2023/08/27 11:44:59;;;;;;;5.20;1.88;;;;;;;22.55;68.29;96063.59;2087382;28;20207;-63
2023/08/27 11:46:01;;;;;;;4.50;1.67;;;;;;;22.64;66.11;96052.00;2088404;28;20834;-62
2023/08/27 11:47:05;;;;;;;5.22;2.15;;;;;;;22.80;66.04;96059.25;2087505;28;20912;-62
2023/08/27 11:48:08;;;;;;;7.43;1.80;;;;;;;22.66;66.32;96059.81;2088390;28;20560;-63
2023/08/27 11:49:12;;;;;;;6.82;2.00;;;;;;;22.66;65.86;96063.34;2088790;28;20199;-63
2023/08/27 11:50:14;;;;;;;5.07;1.83;;;;;;;22.83;65.24;96064.22;2088658;28;20663;-65
2023/08/27 11:51:16;;;;;;;6.55;1.50;;;;;;;21.94;64.97;96063.47;2088924;28;20200;-65
2023/08/27 11:52:18;;;;;;;4.50;1.98;;;;;;;21.96;67.89;96061.47;2088835;28;20722;-65
2023/08/27 11:53:22;;;;;;;4.13;1.60;;;;;;;22.27;66.04;96063.72;2089022;28;20640;-65
2023/08/27 11:54:29;;;;;;;3.60;1.52;;;;;;;22.42;63.42;96064.00;2088808;28;20204;-65
2023/08/27 11:55:31;;;;;;;4.22;1.50;;;;;;;22.59;66.32;96064.09;2088963;28;20233;-65
2023/08/27 11:56:37;;;;;;;13.82;1.80;;;;;;;22.44;66.74;96063.88;2088321;28;20729;-65
2023/08/27 11:57:40;;;;;;;5.88;1.30;;;;;;;22.57;64.32;96066.91;2088985;28;20315;-65
2023/08/27 11:58:44;;;;;;;5.70;1.73;;;;;;;22.48;64.66;96060.72;2088531;28;20208;-65
2023/08/27 11:59:48;;;;;;;5.38;1.80;;;;;;;22.56;65.44;96067.09;2088994;28;20727;-64
2023/08/27 12:00:53;;;;;;;10.35;2.30;;;;;;;22.72;66.43;96053.03;2088543;28;20192;-64
2023/08/27 12:01:58;;;;;;;6.40;1.60;;;;;;;22.68;66.97;96057.84;2087272;28;20219;-64
2023/08/27 12:03:00;;;;;;;11.00;2.05;;;;;;;22.54;66.78;96064.59;2089538;28;20204;-64
2023/08/27 12:04:03;;;;;;;3.78;1.60;;;;;;;22.38;67.44;96061.81;2090549;28;20204;-64
2023/08/27 12:05:08;;;;;;;4.47;2.10;;;;;;;22.02;68.50;96066.19;2090536;28;20208;-64
2023/08/27 12:06:19;;;;;;;6.95;2.35;;;;;;;21.94;70.00;96071.44;2090178;28;20199;-64
2023/08/27 12:07:26;;;;;;;4.82;2.08;;;;;;;21.55;69.05;96066.44;2088868;28;20315;-64
2023/08/27 12:08:33;;;;;;;6.15;1.70;;;;;;;21.63;70.25;96055.88;2088991;28;20246;-64
2023/08/27 12:09:35;;;;;;;5.88;2.05;;;;;;;21.56;71.00;96065.47;2090489;28;20200;-64
2023/08/27 12:10:44;;;;;;;6.72;2.03;;;;;;;21.42;71.10;96064.13;2089231;28;20385;-64
2023/08/27 12:11:46;;;;;;;7.15;1.80;;;;;;;21.39;69.63;96055.63;2087869;28;20219;-64
2023/08/27 12:12:49;;;;;;;6.32;2.15;;;;;;;21.23;69.16;96051.81;2088205;28;20239;-64
2023/08/27 12:13:53;;;;;;;5.72;1.70;;;;;;;21.40;69.11;96057.31;2105272;28;20191;-64
2023/08/27 12:14:57;;;;;;;4.10;2.03;;;;;;;21.14;69.51;96045.59;2104002;28;20285;-64
2023/08/27 12:24:51;;;;;;;4.90;2.35;;;;;;;20.57;77.42;96029.78;2084634;28;20567;-63
2023/08/27 12:25:53;;;;;;;8.30;2.55;;;;;;;20.73;78.78;96039.78;2086211;28;20246;-63
2023/08/27 12:27:03;;;;;;;10.95;2.05;;;;;;;20.41;79.10;96037.50;2079519;28;20197;-63
2023/08/27 12:28:05;;;;;;;4.15;2.00;;;;;;;20.50;78.01;96040.13;2074639;28;20229;-63
2023/08/27 12:29:07;;;;;;;6.75;1.92;;;;;;;20.54;78.77;96045.97;2073012;28;20778;-63
2023/08/27 12:30:10;;;;;;;9.27;2.58;;;;;;;20.39;76.45;96046.44;2074076;28;20202;-63
2023/08/27 12:31:24;;;;;;;4.07;1.80;;;;;;;20.62;73.63;96042.59;2072979;28;20710;-63
2023/08/27 12:32:30;;;;;;;7.63;1.92;;;;;;;20.75;74.02;96047.59;2069946;28;20218;-65
2023/08/27 12:33:39;;;;;;;6.35;1.70;;;;;;;20.81;68.71;96058.47;2072448;28;20571;-65
2023/08/27 12:34:44;;;;;;;5.70;1.63;;;;;;;19.92;68.59;96042.91;2074556;28;20263;-65
2023/08/27 12:35:46;;;;;;;7.22;1.83;;;;;;;20.42;70.05;96037.38;2074887;28;20243;-65
2023/08/27 12:36:48;;;;;;;5.93;1.70;;;;;;;20.61;66.46;96041.75;2070668;28;20285;-65
2023/08/27 12:37:49;;;;;;;4.68;1.52;;;;;;;21.27;68.31;96036.41;2071450;28;20217;-66
2023/08/27 12:38:51;;;;;;;9.27;2.05;;;;;;;21.73;67.13;96036.41;2075110;28;20280;-65
2023/08/27 12:39:53;;;;;;;5.72;1.80;;;;;;;21.70;67.69;96037.53;2074904;28;20227;-65
2023/08/27 12:40:55;;;;;;;9.18;1.75;;;;;;;21.89;66.86;96041.84;2073701;28;20229;-65
2023/08/27 12:41:56;;;;;;;3.80;1.70;;;;;;;21.73;65.50;96039.06;2072482;28;20890;-65
2023/08/27 12:42:58;;;;;;;10.60;2.35;;;;;;;21.55;67.23;96039.88;2072692;28;20278;-66
2023/08/27 12:43:59;;;;;;;7.25;2.17;;;;;;;21.56;67.75;96032.75;2075137;28;20216;-65
2023/08/27 12:45:01;;;;;;;7.53;1.90;;;;;;;21.69;69.10;96042.00;2074949;28;20644;-65
2023/08/27 12:46:04;;;;;;;14.45;1.92;;;;;;;21.58;68.16;96044.88;2074978;28;20235;-65
2023/08/27 12:47:06;;;;;;;6.70;1.88;;;;;;;21.71;66.49;96044.50;2073756;28;20602;-65
2023/08/27 12:48:08;;;;;;;10.63;1.75;;;;;;;21.57;68.52;96048.53;2074509;28;20197;-65
2023/08/27 12:49:09;;;;;;;5.63;2.00;;;;;;;21.75;69.46;96055.66;2073832;28;20198;-65
2023/08/27 12:50:11;;;;;;;7.25;1.98;;;;;;;21.78;70.32;96055.38;2073331;28;20247;-65
2023/08/27 12:51:14;;;;;;;6.63;1.80;;;;;;;21.77;70.57;96053.69;2073463;28;20208;-65
2023/08/27 12:52:15;;;;;;;3.42;1.95;;;;;;;21.80;68.96;96045.41;2073316;28;20235;-65
2023/08/27 12:53:17;;;;;;;4.57;1.70;;;;;;;21.74;67.96;96053.97;2074068;28;20201;-65
2023/08/27 12:54:18;;;;;;;6.88;1.80;;;;;;;21.84;68.53;96047.63;2074177;28;20190;-65
2023/08/27 12:55:20;;;;;;;5.35;1.48;;;;;;;21.56;65.92;96044.22;2070839;28;20251;-65
2023/08/27 12:56:22;;;;;;;5.55;1.77;;;;;;;21.06;64.47;96040.16;2071016;28;20202;-65
2023/08/27 12:57:24;;;;;;;5.00;2.05;;;;;;;21.02;65.55;96049.41;2073863;28;20222;-65
2023/08/27 12:58:26;;;;;;;7.78;2.22;;;;;;;21.02;67.57;96044.13;2073848;28;20254;-65
2023/08/27 12:59:28;;;;;;;4.25;1.55;;;;;;;21.15;65.21;96044.59;2074823;28;20190;-65
2023/08/27 13:00:30;;;;;;;5.22;2.00;;;;;;;20.94;66.22;96041.34;2074770;28;20212;-65
2023/08/27 13:01:31;;;;;;;3.40;1.48;;;;;;;20.61;66.55;96048.88;2074532;28;20605;-65
2023/08/27 13:02:32;;;;;;;5.88;1.92;;;;;;;20.07;67.93;96046.78;2074340;28;20229;-65
2023/08/27 13:03:34;;;;;;;5.45;1.70;;;;;;;20.25;67.58;96041.59;2073856;28;20584;-65
2023/08/27 13:04:36;;;;;;;6.38;2.20;;;;;;;19.93;69.22;96053.38;2074295;28;20871;-65
2023/08/27 13:05:38;;;;;;;3.85;1.65;;;;;;;20.00;69.62;96054.47;2073011;28;20201;-65
